createdAt,value
2019-03-28T00:01:53.568Z,79.58
2019-03-28T00:04:24.885Z,79.53
2019-03-28T00:06:56.153Z,79.52
2019-03-28T00:09:27.422Z,79.49
2019-03-28T00:11:58.679Z,79.24
2019-03-28T00:14:29.870Z,79.52
2019-03-28T00:17:01.103Z,79.33
2019-03-28T00:19:32.414Z,79.55
2019-03-28T00:22:05.682Z,79.91
2019-03-28T00:24:44.821Z,79.75
2019-03-28T00:27:15.959Z,79.46
2019-03-28T00:29:47.171Z,80.04
2019-03-28T00:32:18.654Z,79.96
2019-03-28T00:34:49.982Z,80.75
2019-03-28T00:37:21.242Z,81.08
2019-03-28T00:39:54.902Z,80.83
2019-03-28T00:42:25.909Z,80.52
2019-03-28T00:44:57.240Z,80.51
2019-03-28T00:47:28.418Z,80.40
2019-03-28T00:49:59.751Z,80.39
2019-03-28T00:52:31.165Z,79.95
2019-03-28T00:55:03.486Z,79.70
2019-03-28T00:57:34.816Z,79.97
2019-03-28T01:00:06.528Z,79.83
2019-03-28T01:02:37.792Z,79.78
2019-03-28T01:05:09.367Z,79.38
2019-03-28T01:07:40.742Z,79.82
2019-03-28T01:10:12.742Z,79.68
2019-03-28T01:12:46.513Z,79.79
2019-03-28T01:15:17.753Z,79.88
2019-03-28T01:17:50.259Z,79.84
2019-03-28T01:20:21.438Z,79.56
2019-03-28T01:22:52.699Z,79.87
2019-03-28T01:25:24.080Z,80.51
2019-03-28T01:27:55.475Z,81.22
2019-03-28T01:30:26.738Z,81.29
2019-03-28T01:32:57.945Z,80.90
2019-03-28T01:35:29.287Z,81.30
2019-03-28T01:38:00.492Z,81.78
2019-03-28T01:40:31.818Z,81.88
2019-03-28T01:43:03.025Z,81.69
2019-03-28T01:45:34.247Z,81.08
2019-03-28T01:48:05.551Z,81.33
2019-03-28T01:50:36.812Z,81.48
2019-03-28T01:53:07.994Z,81.67
2019-03-28T01:55:39.319Z,82.65
2019-03-28T01:58:10.595Z,82.50
2019-03-28T02:00:41.812Z,81.36
2019-03-28T02:03:13.110Z,81.87
2019-03-28T02:05:44.365Z,81.79
2019-03-28T02:08:15.626Z,81.54
2019-03-28T02:10:46.711Z,81.55
2019-03-28T02:13:18.019Z,81.38
2019-03-28T02:15:49.236Z,81.10
2019-03-28T02:18:20.373Z,81.50
2019-03-28T02:20:51.765Z,81.81
2019-03-28T02:23:22.945Z,81.35
2019-03-28T02:25:54.143Z,81.01
2019-03-28T02:28:25.419Z,80.40
2019-03-28T02:30:56.658Z,80.49
2019-03-28T02:33:28.016Z,80.53
2019-03-28T02:35:59.176Z,80.57
2019-03-28T02:38:30.290Z,80.77
2019-03-28T02:41:01.573Z,80.82
2019-03-28T02:43:32.668Z,81.21
2019-03-28T02:46:03.947Z,80.98
2019-03-28T02:48:35.237Z,80.72
2019-03-28T02:51:06.492Z,80.36
2019-03-28T02:53:37.761Z,81.07
2019-03-28T02:56:09.034Z,80.83
2019-03-28T02:58:40.206Z,80.79
2019-03-28T03:01:11.439Z,80.40
2019-03-28T03:03:42.725Z,81.29
2019-03-28T03:06:14.032Z,81.35
2019-03-28T03:08:45.233Z,81.25
2019-03-28T03:11:16.535Z,80.77
2019-03-28T03:13:47.763Z,81.51
2019-03-28T03:16:18.950Z,81.50
2019-03-28T03:18:50.220Z,81.10
2019-03-28T03:21:21.452Z,81.53
2019-03-28T03:23:52.579Z,81.39
2019-03-28T03:26:23.832Z,81.12
2019-03-28T03:28:55.122Z,80.71
2019-03-28T03:31:26.424Z,81.26
2019-03-28T03:33:57.772Z,82.33
2019-03-28T03:36:29.035Z,82.06
2019-03-28T03:39:00.313Z,81.94
2019-03-28T03:41:31.562Z,82.90
2019-03-28T03:44:02.648Z,82.69
2019-03-28T03:46:33.985Z,82.54
2019-03-28T03:49:05.256Z,82.57
2019-03-28T03:51:36.400Z,82.72
2019-03-28T03:54:07.837Z,82.72
2019-03-28T03:56:39.054Z,82.55
2019-03-28T03:59:10.247Z,82.01
2019-03-28T04:01:41.395Z,82.11
2019-03-28T04:04:12.640Z,82.29
2019-03-28T04:06:43.806Z,81.62
2019-03-28T04:09:15.096Z,82.23
2019-03-28T04:11:46.251Z,82.28
2019-03-28T04:14:17.497Z,83.05
2019-03-28T04:16:48.826Z,83.53
2019-03-28T04:19:20.088Z,83.15
2019-03-28T04:21:51.390Z,83.37
2019-03-28T04:24:22.706Z,83.14
2019-03-28T04:26:54.015Z,82.57
2019-03-28T04:29:25.180Z,82.04
2019-03-28T04:31:56.456Z,82.81
2019-03-28T04:34:27.753Z,82.75
2019-03-28T04:36:59.027Z,83.20
2019-03-28T04:39:30.304Z,83.04
2019-03-28T04:42:01.636Z,83.05
2019-03-28T04:44:32.844Z,83.03
2019-03-28T04:47:04.092Z,82.54
2019-03-28T04:49:35.256Z,83.09
2019-03-28T04:52:06.448Z,82.69
2019-03-28T04:54:37.678Z,83.47
2019-03-28T04:57:08.898Z,83.59
2019-03-28T04:59:40.160Z,83.11
2019-03-28T05:02:11.359Z,82.78
2019-03-28T05:04:42.614Z,83.62
2019-03-28T05:07:13.893Z,83.24
2019-03-28T05:09:45.055Z,82.86
2019-03-28T05:12:16.307Z,82.57
2019-03-28T05:14:47.470Z,82.13
2019-03-28T05:17:18.715Z,82.88
2019-03-28T05:19:50.024Z,83.00
2019-03-28T05:22:21.427Z,82.82
2019-03-28T05:24:53.536Z,82.75
2019-03-28T05:27:24.744Z,81.84
2019-03-28T05:29:55.878Z,82.87
2019-03-28T05:32:27.099Z,82.99
2019-03-28T05:34:58.464Z,82.76
2019-03-28T05:37:29.810Z,82.49
2019-03-28T05:40:01.090Z,81.83
2019-03-28T05:42:32.312Z,81.42
2019-03-28T05:45:03.559Z,81.06
2019-03-28T05:47:34.749Z,81.05
2019-03-28T05:50:06.730Z,80.82
2019-03-28T05:52:38.025Z,80.93
2019-03-28T05:55:09.361Z,80.50
2019-03-28T05:57:40.719Z,79.99
2019-03-28T06:00:12.238Z,79.61
2019-03-28T06:02:43.473Z,79.48
2019-03-28T06:05:14.702Z,79.01
2019-03-28T06:07:45.944Z,78.59
2019-03-28T06:10:17.185Z,78.98
2019-03-28T06:12:48.458Z,79.30
2019-03-28T06:15:19.714Z,79.31
2019-03-28T06:17:50.989Z,79.30
2019-03-28T06:20:22.063Z,79.33
2019-03-28T06:22:54.795Z,78.79
2019-03-28T06:25:26.017Z,78.65
2019-03-28T06:27:57.219Z,78.78
2019-03-28T06:30:28.497Z,78.62
2019-03-28T06:32:59.805Z,77.55
2019-03-28T06:35:31.006Z,77.30
2019-03-28T06:38:02.308Z,77.06
2019-03-28T06:40:33.598Z,76.88
2019-03-28T06:43:04.736Z,76.46
2019-03-28T06:45:36.094Z,76.09
2019-03-28T06:48:07.383Z,76.47
2019-03-28T06:50:38.621Z,76.05
2019-03-28T06:53:09.831Z,75.14
2019-03-28T06:55:41.037Z,74.52
2019-03-28T06:58:12.332Z,73.43
2019-03-28T07:00:45.230Z,72.48
2019-03-28T07:03:16.514Z,70.11
2019-03-28T07:05:48.420Z,68.81
2019-03-28T07:08:19.743Z,69.59
2019-03-28T07:10:51.038Z,68.76
2019-03-28T07:13:22.232Z,65.99
2019-03-28T07:15:53.535Z,65.23
2019-03-28T07:18:24.757Z,66.16
2019-03-28T07:20:56.014Z,65.45
2019-03-28T07:23:27.383Z,64.81
2019-03-28T07:25:58.711Z,65.30
2019-03-28T07:28:29.919Z,63.92
2019-03-28T07:31:01.161Z,63.10
2019-03-28T07:33:32.507Z,59.76
2019-03-28T07:36:03.766Z,58.07
2019-03-28T07:38:35.045Z,56.85
2019-03-28T07:41:06.165Z,57.86
2019-03-28T07:43:37.402Z,57.37
2019-03-28T07:46:08.707Z,58.30
2019-03-28T07:48:39.941Z,56.94
2019-03-28T07:51:11.213Z,55.04
2019-03-28T07:53:42.464Z,55.94
2019-03-28T07:56:13.786Z,55.66
2019-03-28T07:58:45.067Z,55.98
2019-03-28T08:01:18.067Z,56.27
2019-03-28T08:03:49.399Z,56.34
2019-03-28T08:06:20.838Z,54.61
2019-03-28T08:08:52.106Z,54.26
2019-03-28T08:11:23.316Z,52.42
2019-03-28T08:13:54.634Z,52.86
2019-03-28T08:16:28.742Z,52.65
2019-03-28T08:18:58.952Z,53.13
2019-03-28T08:21:30.252Z,48.77
2019-03-28T08:24:01.656Z,47.66
2019-03-28T08:26:33.019Z,47.08
2019-03-28T08:29:04.296Z,47.69
2019-03-28T08:31:36.569Z,46.04
2019-03-28T08:34:07.844Z,44.87
2019-03-28T08:36:39.458Z,45.03
2019-03-28T08:39:10.693Z,45.62
2019-03-28T08:41:41.996Z,44.87
2019-03-28T08:44:13.287Z,44.64
2019-03-28T08:46:44.509Z,40.53
2019-03-28T08:49:16.078Z,40.16
2019-03-28T08:51:47.299Z,38.41
2019-03-28T08:54:18.471Z,39.68
2019-03-28T08:56:49.762Z,38.24
2019-03-28T08:59:20.945Z,36.91
2019-03-28T09:02:10.971Z,35.29
2019-03-28T09:04:42.196Z,36.26
2019-03-28T09:07:13.408Z,35.96
2019-03-28T09:09:44.621Z,35.37
2019-03-28T09:12:35.403Z,35.76
2019-03-28T09:15:09.164Z,37.37
2019-03-28T09:17:40.443Z,37.25
2019-03-28T09:20:12.030Z,36.58
2019-03-28T09:22:43.327Z,38.21
2019-03-28T09:25:14.885Z,37.71
2019-03-28T09:27:46.199Z,36.39
2019-03-28T09:30:46.722Z,35.50
2019-03-28T09:33:06.663Z,33.98
2019-03-28T09:35:38.091Z,32.87
2019-03-28T09:38:09.522Z,32.03
2019-03-28T09:40:40.676Z,33.08
2019-03-28T09:43:11.899Z,33.52
2019-03-28T09:45:43.177Z,34.48
2019-03-28T09:48:14.459Z,35.77
2019-03-28T09:50:45.653Z,37.27
2019-03-28T09:53:16.896Z,36.31
2019-03-28T09:55:48.209Z,37.02
2019-03-28T09:58:20.344Z,38.17
2019-03-28T10:01:02.883Z,38.00
2019-03-28T10:03:25.266Z,37.37
2019-03-28T10:05:56.566Z,37.93
2019-03-28T10:08:27.863Z,36.86
2019-03-28T10:10:59.131Z,37.25
2019-03-28T10:13:30.358Z,35.92
2019-03-28T10:16:01.584Z,36.20
2019-03-28T10:18:34.628Z,35.28
2019-03-28T10:21:05.941Z,35.16
2019-03-28T10:23:39.666Z,35.02
2019-03-28T10:26:10.179Z,35.40
2019-03-28T10:28:41.422Z,35.05
2019-03-28T10:31:16.657Z,35.91
2019-03-28T10:33:45.987Z,36.02
2019-03-28T10:36:17.196Z,35.24
2019-03-28T10:38:48.564Z,33.90
2019-03-28T10:41:19.784Z,33.30
2019-03-28T10:43:51.060Z,32.43
2019-03-28T10:46:22.341Z,33.37
2019-03-28T10:48:54.604Z,33.77
2019-03-28T10:51:25.927Z,33.37
2019-03-28T10:53:57.204Z,34.32
2019-03-28T10:56:28.417Z,33.09
2019-03-28T10:58:59.802Z,32.84
2019-03-28T11:01:47.516Z,31.77
2019-03-28T11:04:04.105Z,31.97
2019-03-28T11:06:35.372Z,32.32
2019-03-28T11:09:08.618Z,31.03
2019-03-28T11:11:40.024Z,29.85
2019-03-28T11:14:11.341Z,28.28
2019-03-28T11:16:42.698Z,27.85
2019-03-28T11:19:15.774Z,28.61
2019-03-28T11:21:46.954Z,27.75
2019-03-28T11:24:18.166Z,29.19
2019-03-28T11:26:51.646Z,30.02
2019-03-28T11:29:22.968Z,28.67
2019-03-28T11:31:54.195Z,25.68
2019-03-28T11:34:25.377Z,25.81
2019-03-28T11:36:56.700Z,26.29
2019-03-28T11:39:27.933Z,27.57
2019-03-28T11:42:00.501Z,25.60
2019-03-28T11:44:31.883Z,27.31
2019-03-28T11:47:03.342Z,28.19
2019-03-28T11:49:34.852Z,29.75
2019-03-28T11:52:05.994Z,28.91
2019-03-28T11:54:38.737Z,29.11
2019-03-28T11:57:10.062Z,29.18
2019-03-28T11:59:41.340Z,29.46
2019-03-28T12:02:19.540Z,27.69
2019-03-28T12:04:45.696Z,27.13
2019-03-28T12:07:17.033Z,26.02
2019-03-28T12:09:48.322Z,25.72
2019-03-28T12:12:19.523Z,24.31
2019-03-28T12:14:50.774Z,24.30
2019-03-28T12:17:22.021Z,23.97
2019-03-28T12:19:53.331Z,26.35
2019-03-28T12:22:24.595Z,27.19
2019-03-28T12:24:56.202Z,29.65
2019-03-28T12:27:27.463Z,31.07
2019-03-28T12:29:58.871Z,32.46
2019-03-28T12:32:30.149Z,29.03
2019-03-28T12:35:01.316Z,28.00
2019-03-28T12:37:32.616Z,26.86
2019-03-28T12:40:03.946Z,26.99
2019-03-28T12:42:35.180Z,27.08
2019-03-28T12:45:08.554Z,28.11
2019-03-28T12:47:42.695Z,29.05
2019-03-28T12:50:13.803Z,29.92
2019-03-28T12:52:45.185Z,31.42
2019-03-28T12:55:16.546Z,28.95
2019-03-28T12:57:48.495Z,29.79
2019-03-28T13:00:35.423Z,28.99
2019-03-28T13:03:06.843Z,28.92
2019-03-28T13:05:39.014Z,29.05
2019-03-28T13:08:10.490Z,29.14
2019-03-28T13:10:41.747Z,29.81
2019-03-28T13:13:13.045Z,30.67
2019-03-28T13:15:44.309Z,31.14
2019-03-28T13:18:15.522Z,31.14
2019-03-28T13:20:46.838Z,32.49
2019-03-28T13:23:18.174Z,32.68
2019-03-28T13:25:49.343Z,33.67
2019-03-28T13:28:20.581Z,34.15
2019-03-28T13:30:51.899Z,33.16
2019-03-28T13:33:23.531Z,33.11
2019-03-28T13:35:54.646Z,32.99
2019-03-28T13:38:25.933Z,33.67
2019-03-28T13:40:57.171Z,34.04
2019-03-28T13:43:28.278Z,37.67
2019-03-28T13:45:59.489Z,35.81
2019-03-28T13:48:30.869Z,34.81
2019-03-28T13:51:02.172Z,35.06
2019-03-28T13:53:39.542Z,36.98
2019-03-28T13:56:06.468Z,36.43
2019-03-28T13:58:37.774Z,36.27
2019-03-28T14:01:09.034Z,36.30
2019-03-28T14:03:40.229Z,37.20
2019-03-28T14:06:11.508Z,37.56
2019-03-28T14:08:42.733Z,39.14
2019-03-28T14:11:14.070Z,37.17
2019-03-28T14:13:45.332Z,40.08
2019-03-28T14:16:16.624Z,39.17
2019-03-28T14:18:47.946Z,38.90
2019-03-28T14:21:19.203Z,38.01
2019-03-28T14:23:50.486Z,39.11
2019-03-28T14:26:21.786Z,38.33
2019-03-28T14:28:53.055Z,37.30
2019-03-28T14:31:24.209Z,38.65
2019-03-28T14:33:55.466Z,39.25
2019-03-28T14:36:26.743Z,38.69
2019-03-28T14:38:58.034Z,39.04
2019-03-28T14:41:29.217Z,39.06
2019-03-28T14:44:00.484Z,39.65
2019-03-28T14:46:31.782Z,39.65
2019-03-28T14:49:03.065Z,39.16
2019-03-28T14:51:34.544Z,39.33
2019-03-28T14:54:05.899Z,39.88
2019-03-28T14:56:37.451Z,40.58
2019-03-28T14:59:10.374Z,40.65
2019-03-28T15:01:41.643Z,39.67
2019-03-28T15:04:12.872Z,40.33
2019-03-28T15:06:44.166Z,39.02
2019-03-28T15:09:15.447Z,39.96
2019-03-28T15:11:46.612Z,39.14
2019-03-28T15:14:17.943Z,39.71
2019-03-28T15:16:49.277Z,40.14
2019-03-28T15:19:20.559Z,39.43
2019-03-28T15:21:51.766Z,40.54
2019-03-28T15:24:23.100Z,41.61
2019-03-28T15:26:54.446Z,42.15
2019-03-28T15:29:25.634Z,42.42
2019-03-28T15:31:56.903Z,41.53
2019-03-28T15:34:28.094Z,41.76
2019-03-28T15:36:59.489Z,42.01
2019-03-28T15:39:31.614Z,43.39
2019-03-28T15:42:03.163Z,44.37
2019-03-28T15:44:34.424Z,43.71
2019-03-28T15:47:05.761Z,44.22
2019-03-28T15:49:37.024Z,44.53
2019-03-28T15:52:08.232Z,44.16
2019-03-28T15:54:39.534Z,45.17
2019-03-28T15:57:10.679Z,45.12
2019-03-28T15:59:41.862Z,45.50
2019-03-28T16:02:13.101Z,45.22
2019-03-28T16:04:44.375Z,45.29
2019-03-28T16:07:15.625Z,44.74
2019-03-28T16:09:46.987Z,45.78
2019-03-28T16:12:18.293Z,45.91
2019-03-28T16:14:49.609Z,46.08
2019-03-28T16:17:21.656Z,46.59
2019-03-28T16:19:53.301Z,46.70
2019-03-28T16:22:24.538Z,47.25
2019-03-28T16:24:55.890Z,46.33
2019-03-28T16:27:27.118Z,47.28
2019-03-28T16:29:58.402Z,47.68
2019-03-28T16:32:29.584Z,48.92
2019-03-28T16:35:00.823Z,49.60
2019-03-28T16:37:32.051Z,49.76
2019-03-28T16:40:03.993Z,50.06
2019-03-28T16:42:35.246Z,50.48
2019-03-28T16:45:07.747Z,51.06
2019-03-28T16:47:39.036Z,50.99
2019-03-28T16:50:10.657Z,51.77
2019-03-28T16:52:41.875Z,51.99
2019-03-28T16:55:25.581Z,52.76
2019-03-28T16:57:46.113Z,53.42
2019-03-28T17:00:18.025Z,53.54
2019-03-28T17:02:49.284Z,53.91
2019-03-28T17:05:20.520Z,54.01
2019-03-28T17:07:52.445Z,54.55
2019-03-28T17:10:54.641Z,55.04
2019-03-28T17:13:26.198Z,54.47
2019-03-28T17:15:57.474Z,55.99
2019-03-28T17:18:28.700Z,56.49
2019-03-28T17:21:00.070Z,56.44
2019-03-28T17:23:31.364Z,56.52
2019-03-28T17:26:02.631Z,57.18
2019-03-28T17:28:33.898Z,56.81
2019-03-28T17:31:05.271Z,57.21
2019-03-28T17:33:36.596Z,56.90
2019-03-28T17:36:07.974Z,56.47
2019-03-28T17:38:39.186Z,57.31
2019-03-28T17:41:10.467Z,57.79
2019-03-28T17:43:42.087Z,58.46
2019-03-28T17:46:13.409Z,58.55
2019-03-28T17:48:44.727Z,59.05
2019-03-28T17:51:16.039Z,59.33
2019-03-28T17:53:47.371Z,59.31
2019-03-28T17:56:18.757Z,59.52
2019-03-28T17:58:49.916Z,59.74
2019-03-28T18:01:21.055Z,59.99
2019-03-28T18:03:52.318Z,60.31
2019-03-28T18:06:23.471Z,60.29
2019-03-28T18:08:54.727Z,60.66
2019-03-28T18:11:25.984Z,60.36
2019-03-28T18:13:57.449Z,61.23
2019-03-28T18:16:28.994Z,62.13
2019-03-28T18:19:00.380Z,62.27
2019-03-28T18:21:31.690Z,62.02
2019-03-28T18:24:02.898Z,62.84
2019-03-28T18:26:34.132Z,62.45
2019-03-28T18:29:05.367Z,62.45
2019-03-28T18:31:49.402Z,62.78
2019-03-28T18:34:12.306Z,63.04
2019-03-28T18:36:42.721Z,63.33
2019-03-28T18:39:14.398Z,63.56
2019-03-28T18:41:45.763Z,63.34
2019-03-28T18:44:16.996Z,63.66
2019-03-28T18:46:48.402Z,63.71
2019-03-28T18:49:19.612Z,64.00
2019-03-28T18:51:50.885Z,64.16
2019-03-28T18:54:22.168Z,64.21
2019-03-28T18:56:53.478Z,64.21
2019-03-28T18:59:24.776Z,64.09
2019-03-28T19:01:56.110Z,63.96
2019-03-28T19:04:27.401Z,63.73
2019-03-28T19:06:58.734Z,63.03
2019-03-28T19:09:29.929Z,63.89
2019-03-28T19:12:01.299Z,64.25
2019-03-28T19:14:32.592Z,64.35
2019-03-28T19:17:04.760Z,64.70
2019-03-28T19:19:39.592Z,65.13
2019-03-28T19:22:09.285Z,64.97
2019-03-28T19:24:42.123Z,65.00
2019-03-28T19:27:15.785Z,65.52
2019-03-28T19:29:47.204Z,66.43
2019-03-28T19:32:18.610Z,66.52
2019-03-28T19:34:49.875Z,66.50
2019-03-28T19:37:23.928Z,66.34
2019-03-28T19:39:55.704Z,66.33
2019-03-28T19:42:26.911Z,65.64
2019-03-28T19:44:58.383Z,66.00
2019-03-28T19:47:29.726Z,66.87
2019-03-28T19:50:00.980Z,66.55
2019-03-28T19:52:32.329Z,66.82
2019-03-28T19:55:03.557Z,66.41
2019-03-28T19:57:34.783Z,66.31
2019-03-28T20:00:07.283Z,66.54
2019-03-28T20:02:38.541Z,66.75
2019-03-28T20:05:10.467Z,66.94
2019-03-28T20:07:41.757Z,66.82
2019-03-28T20:10:16.634Z,66.74
2019-03-28T20:12:46.215Z,67.40
2019-03-28T20:15:17.602Z,67.26
2019-03-28T20:17:48.867Z,67.63
2019-03-28T20:20:20.953Z,67.80
2019-03-28T20:22:52.327Z,68.06
2019-03-28T20:25:23.642Z,68.17
2019-03-28T20:27:54.930Z,68.22
2019-03-28T20:30:27.717Z,68.56
2019-03-28T20:33:00.142Z,68.75
2019-03-28T20:35:31.430Z,68.62
2019-03-28T20:38:03.713Z,68.97
2019-03-28T20:40:35.224Z,68.80
2019-03-28T20:43:08.089Z,68.94
2019-03-28T20:45:39.624Z,68.79
2019-03-28T20:48:10.931Z,68.78
2019-03-28T20:50:42.365Z,69.18
2019-03-28T20:53:13.768Z,69.27
2019-03-28T20:55:45.304Z,69.24
2019-03-28T20:58:16.606Z,69.28
2019-03-28T21:00:49.014Z,69.60
2019-03-28T21:03:20.511Z,69.36
2019-03-28T21:05:51.780Z,69.17
2019-03-28T21:08:23.256Z,70.06
2019-03-28T21:10:54.498Z,69.97
2019-03-28T21:13:26.218Z,70.11
2019-03-28T21:15:57.892Z,70.29
2019-03-28T21:18:29.101Z,69.90
2019-03-28T21:21:00.295Z,69.86
2019-03-28T21:23:31.464Z,69.62
2019-03-28T21:26:02.807Z,69.99
2019-03-28T21:28:46.597Z,69.76
2019-03-28T21:31:07.121Z,70.55
2019-03-28T21:33:38.526Z,70.58
2019-03-28T21:36:09.769Z,70.60
2019-03-28T21:38:41.008Z,70.73
2019-03-28T21:41:12.332Z,70.27
2019-03-28T21:43:43.593Z,71.14
2019-03-28T21:46:14.829Z,71.29
2019-03-28T21:48:46.080Z,71.46
2019-03-28T21:51:17.334Z,72.44
2019-03-28T21:53:48.672Z,71.57
2019-03-28T21:56:19.965Z,71.70
2019-03-28T21:58:51.289Z,71.86
2019-03-28T22:01:22.873Z,71.79
2019-03-28T22:03:54.151Z,71.86
2019-03-28T22:06:25.768Z,72.11
2019-03-28T22:08:57.049Z,72.03
2019-03-28T22:11:28.249Z,71.68
2019-03-28T22:13:59.437Z,71.89
2019-03-28T22:16:30.689Z,72.67
2019-03-28T22:19:05.077Z,72.90
2019-03-28T22:21:35.936Z,73.50
2019-03-28T22:24:07.437Z,73.48
2019-03-28T22:26:38.610Z,73.19
2019-03-28T22:29:09.929Z,73.05
2019-03-28T22:31:41.187Z,72.85
2019-03-28T22:34:12.399Z,73.09
2019-03-28T22:36:56.680Z,73.25
2019-03-28T22:39:16.853Z,73.70
2019-03-28T22:41:48.254Z,73.49
2019-03-28T22:44:20.198Z,73.98
2019-03-28T22:46:51.500Z,73.46
2019-03-28T22:49:25.172Z,73.17
2019-03-28T22:51:56.464Z,73.44
2019-03-28T22:54:28.027Z,73.89
2019-03-28T22:56:59.155Z,74.15
2019-03-28T22:59:30.457Z,73.82
2019-03-28T23:02:02.784Z,74.07
2019-03-28T23:04:34.094Z,74.01
2019-03-28T23:07:11.144Z,74.53
2019-03-28T23:09:38.453Z,74.58
2019-03-28T23:12:09.744Z,74.79
2019-03-28T23:14:41.005Z,75.14
2019-03-28T23:17:12.247Z,75.69
2019-03-28T23:19:43.453Z,74.95
2019-03-28T23:22:14.739Z,75.34
2019-03-28T23:24:45.997Z,75.56
2019-03-28T23:27:17.290Z,75.82
2019-03-28T23:29:48.910Z,76.21
2019-03-28T23:32:20.199Z,76.41
2019-03-28T23:34:51.510Z,76.92
2019-03-28T23:37:25.069Z,76.90
2019-03-28T23:39:56.041Z,77.08
2019-03-28T23:42:27.345Z,77.06
2019-03-28T23:44:58.776Z,77.54
2019-03-28T23:47:30.369Z,77.68
2019-03-28T23:50:01.802Z,77.70
2019-03-28T23:52:33.231Z,77.91
2019-03-28T23:55:04.724Z,78.34
2019-03-28T23:57:36.149Z,77.69
